This is the latest recevied weather packets stored in our database for station/object KM4CNW. If no packets are shown the sender has not sent any weather packets the latest 10 day(s).
| Time | Temp. | Humidity | Pressure | Rain* | Wind** | Luminosity | Snow |
|---|---|---|---|---|---|---|---|
| 1777408230 | 17.78° C | 73% | 1011.9 hPa | 0 mm | - | 181 W/m² | - |
| 1777407926 | 17.78° C | 73% | 1012.2 hPa | 0 mm | - | 126 W/m² | - |
| 1777407624 | 17.78° C | 73% | 1012.3 hPa | 0 mm | - | 123 W/m² | - |
| 1777407323 | 17.78° C | 74% | 1012.6 hPa | 0 mm | - | 165 W/m² | - |
| 1777407024 | 17.78° C | 72% | 1012.5 hPa | 0 mm | - | 123 W/m² | - |
| 1777406719 | 17.78° C | 72% | 1012.5 hPa | 0 mm | - | 144 W/m² | - |
| 1777406414 | 17.78° C | 73% | 1012.7 hPa | 0 mm | - | 207 W/m² | - |
| 1777406114 | 17.78° C | 73% | 1012.7 hPa | 0 mm | - | 209 W/m² | - |
| 1777405810 | 17.78° C | 72% | 1012.8 hPa | 0 mm | - | 167 W/m² | - |
| 1777405506 | 18.33° C | 71% | 1012.7 hPa | 0 mm | - | 217 W/m² | - |
| 1777405204 | 18.33° C | 71% | 1012.8 hPa | 0 mm | - | 338 W/m² | - |
| 1777404901 | 17.78° C | 75% | 1013.1 hPa | 0 mm | - | 560 W/m² | - |
| 1777404598 | 17.78° C | 74% | 1012.8 hPa | 0 mm | - | 206 W/m² | - |
| 1777404295 | 17.78° C | 75% | 1013.1 hPa | 0 mm | - | 179 W/m² | - |
| 1777403991 | 17.78° C | 75% | 1013.2 hPa | 0 mm | - | 197 W/m² | - |
| 1777403686 | 17.78° C | 75% | 1013.1 hPa | 0 mm | - | 204 W/m² | - |
| 1777403385 | 17.22° C | 77% | 1013.5 hPa | 0 mm | - | 296 W/m² | - |
| 1777403079 | 17.22° C | 78% | 1013.8 hPa | 0 mm | - | 280 W/m² | - |
| 1777402775 | 16.67° C | 79% | 1013.7 hPa | 0 mm | - | 131 W/m² | - |
| 1777402472 | 16.67° C | 78% | 1013.6 hPa | 0 mm | - | 186 W/m² | - |
| 1777402170 | 16.67° C | 80% | 1013.7 hPa | 0 mm | - | 232 W/m² | - |
| 1777401864 | 16.67° C | 79% | 1013.8 hPa | 0 mm | - | 185 W/m² | - |
| 1777401564 | 16.67° C | 79% | 1013.8 hPa | 0 mm | - | 132 W/m² | - |
| 1777401260 | 16.67° C | 79% | 1013.7 hPa | 0 mm | - | 138 W/m² | - |
| 1777400956 | 16.67° C | 79% | 1013.9 hPa | 0 mm | - | 171 W/m² | - |
* Rain latest hour (hover to see other rain measurements)
** Current wind speed in m/s (hover to see current wind gust speed)